Time;durP1;ratioP1;P1;durP2;ratioP2;P2;SDS_P1;SDS_P2;PMS_P1;PMS_P2;Temp;Humidity;BMP_temperature;BMP_pressure;BME280_temperature;BME280_humidity;BME280_pressure;Samples;Min_cycle;Max_cycle;Signal;HPM_P1;HPM_P2
2021/06/04 00:00:19;;;;;;;3.15;2.58;;;14.20;71.40;;;;;;6308975;22;19995;-89
2021/06/04 00:02:45;;;;;;;3.00;2.60;;;14.10;71.50;;;;;;6307749;22;20368;-88
2021/06/04 00:05:13;;;;;;;3.97;2.30;;;14.10;72.30;;;;;;6333577;22;19999;-88
2021/06/04 00:07:39;;;;;;;3.15;2.38;;;14.10;71.90;;;;;;6307792;22;20421;-88
2021/06/04 00:10:14;;;;;;;5.30;2.60;;;14.10;72.00;;;;;;6307549;22;20057;-88
2021/06/04 00:12:40;;;;;;;4.07;2.47;;;14.10;72.20;;;;;;6307524;22;20019;-88
2021/06/04 00:15:10;;;;;;;3.05;2.60;;;14.10;72.40;;;;;;6308778;22;20010;-88
2021/06/04 00:17:36;;;;;;;3.72;2.50;;;14.10;72.30;;;;;;6308061;22;20018;-89
2021/06/04 00:20:07;;;;;;;2.70;2.50;;;14.10;72.40;;;;;;6308885;22;19999;-88
2021/06/04 00:22:32;;;;;;;3.20;2.50;;;14.10;72.50;;;;;;6307405;22;20011;-88
2021/06/04 00:24:58;;;;;;;4.43;2.58;;;14.10;73.10;;;;;;6307256;22;20053;-88
2021/06/04 00:27:25;;;;;;;4.35;2.60;;;14.10;72.50;;;;;;6307339;22;20094;-88
2021/06/04 00:29:51;;;;;;;3.17;2.33;;;14.20;72.70;;;;;;6307264;22;20003;-89
2021/06/04 00:32:19;;;;;;;3.97;2.70;;;14.10;72.80;;;;;;6312316;22;20038;-88
2021/06/04 00:34:45;;;;;;;4.68;2.88;;;14.20;72.90;;;;;;6309133;22;20065;-88
2021/06/04 00:37:12;;;;;;;3.33;2.72;;;14.20;73.60;;;;;;6333324;22;20033;-88
2021/06/04 00:39:39;;;;;;;3.60;2.70;;;14.20;72.90;;;;;;6307179;22;20010;-88
2021/06/04 00:42:13;;;;;;;4.00;2.50;;;14.20;73.00;;;;;;6308791;22;20015;-88
2021/06/04 00:44:39;;;;;;;8.20;3.05;;;14.20;73.00;;;;;;6307226;22;20082;-88
2021/06/04 00:47:05;;;;;;;3.53;2.30;;;14.20;73.10;;;;;;6307263;22;20026;-88
2021/06/04 00:49:31;;;;;;;3.58;2.60;;;14.20;73.20;;;;;;6307265;22;20007;-89
2021/06/04 00:52:13;;;;;;;4.30;2.60;;;14.30;73.10;;;;;;6306847;22;20031;-88
2021/06/04 00:54:40;;;;;;;6.78;2.88;;;14.30;73.00;;;;;;6306949;22;20089;-88
2021/06/04 00:57:07;;;;;;;5.03;2.47;;;14.30;73.10;;;;;;6307126;22;20028;-88
2021/06/04 00:59:37;;;;;;;6.85;3.10;;;14.30;73.00;;;;;;6306940;22;19995;-88
2021/06/04 01:02:06;;;;;;;2.75;2.50;;;14.30;73.10;;;;;;6307141;22;20014;-88
2021/06/04 01:04:32;;;;;;;5.03;2.63;;;14.20;73.00;;;;;;6306815;22;20027;-89
2021/06/04 01:07:22;;;;;;;5.22;2.80;;;14.20;73.00;;;;;;6333072;22;20007;-89
2021/06/04 01:10:06;;;;;;;3.15;2.67;;;14.20;73.40;;;;;;6306740;22;20003;-88
2021/06/04 01:12:40;;;;;;;3.50;2.60;;;14.10;73.20;;;;;;6306893;22;20014;-88
2021/06/04 01:15:12;;;;;;;5.05;2.80;;;14.10;73.40;;;;;;6308223;22;20035;-89
2021/06/04 01:18:06;;;;;;;6.97;2.88;;;14.00;73.50;;;;;;6306890;22;20018;-88
2021/06/04 01:20:36;;;;;;;3.72;2.72;;;14.00;73.70;;;;;;6306652;22;20015;-88
2021/06/04 01:23:23;;;;;;;3.10;2.50;;;13.90;73.70;;;;;;6308720;22;20365;-88
2021/06/04 01:25:53;;;;;;;10.23;2.60;;;13.80;73.90;;;;;;6307011;22;20014;-89
2021/06/04 01:28:43;;;;;;;3.67;2.75;;;13.80;74.10;;;;;;6307031;22;20298;-89
2021/06/04 01:31:44;;;;;;;5.97;2.65;;;13.70;74.50;;;;;;6306715;22;20007;-89
2021/06/04 01:34:19;;;;;;;3.05;2.75;;;13.70;75.00;;;;;;6225033;22;20095;-89
2021/06/04 01:36:50;;;;;;;;;;;13.70;75.40;;;;;;6307058;22;20003;-89
2021/06/04 01:39:38;;;;;;;4.22;2.47;;;13.60;76.20;;;;;;6306580;22;19903;-88
2021/06/04 01:42:06;;;;;;;4.63;2.90;;;13.50;75.60;;;;;;6319854;22;19987;-89
2021/06/04 01:44:38;;;;;;;3.20;2.90;;;13.50;75.90;;;;;;6336209;22;20015;-89
2021/06/04 01:47:09;;;;;;;3.60;3.17;;;13.50;76.20;;;;;;6309019;22;20057;-89
2021/06/04 01:49:38;;;;;;;4.00;3.05;;;13.50;76.50;;;;;;6308268;22;20045;-88
2021/06/04 01:52:15;;;;;;;5.93;3.55;;;13.40;76.90;;;;;;6306387;22;20006;-88
2021/06/04 01:54:54;;;;;;;4.63;2.83;;;13.40;77.40;;;;;;6307780;22;20026;-89
2021/06/04 01:57:28;;;;;;;4.80;2.70;;;13.40;77.90;;;;;;6332689;22;20015;-89
2021/06/04 01:59:55;;;;;;;4.85;2.95;;;13.40;78.20;;;;;;6306501;22;20034;-89
2021/06/04 02:02:23;;;;;;;3.90;3.08;;;13.40;78.40;;;;;;6306648;22;20014;-89
2021/06/04 02:04:53;;;;;;;5.22;2.90;;;13.40;78.50;;;;;;6306283;22;20006;-89
2021/06/04 02:07:26;;;;;;;2.80;2.60;;;13.40;78.70;;;;;;6306440;22;20385;-89
2021/06/04 02:09:52;;;;;;;3.92;2.63;;;13.40;78.90;;;;;;6306359;22;20057;-89
2021/06/04 02:12:22;;;;;;;3.05;2.80;;;13.40;78.90;;;;;;6306598;22;20037;-88
2021/06/04 02:14:52;;;;;;;3.72;3.20;;;13.40;79.40;;;;;;6307530;22;20011;-88
2021/06/04 02:17:46;;;;;;;4.88;3.20;;;13.40;79.60;;;;;;6333526;22;20090;-88
2021/06/04 02:20:29;;;;;;;5.53;2.83;;;13.40;79.70;;;;;;6306263;22;20421;-88
2021/06/04 02:23:25;;;;;;;4.45;3.00;;;13.40;80.40;;;;;;6306533;22;20012;-88
2021/06/04 02:26:19;;;;;;;3.63;2.42;;;13.50;80.20;;;;;;6306513;22;20034;-88
2021/06/04 02:28:56;;;;;;;3.45;2.90;;;13.50;80.30;;;;;;6306630;22;20042;-88
2021/06/04 02:31:54;;;;;;;3.60;2.33;;;13.60;80.10;;;;;;6306454;22;20022;-88
2021/06/04 02:34:32;;;;;;;3.58;2.47;;;13.60;79.90;;;;;;6306247;22;20024;-88
2021/06/04 02:37:13;;;;;;;2.72;2.53;;;13.70;79.70;;;;;;6306452;22;20082;-88
2021/06/04 02:40:07;;;;;;;2.83;2.55;;;13.70;79.80;;;;;;6306104;22;20086;-89
2021/06/04 02:42:42;;;;;;;3.42;2.58;;;13.70;80.10;;;;;;6309648;22;20053;-88
2021/06/04 02:45:20;;;;;;;4.15;3.00;;;13.70;80.10;;;;;;6306850;22;20007;-88
2021/06/04 02:47:53;;;;;;;3.50;2.75;;;13.70;80.30;;;;;;6309552;22;20403;-88
2021/06/04 02:50:27;;;;;;;6.38;3.13;;;13.80;80.40;;;;;;6327017;22;19983;-88
2021/06/04 02:52:53;;;;;;;4.13;2.97;;;13.80;80.40;;;;;;6335128;22;19999;-88
2021/06/04 02:55:44;;;;;;;4.45;2.85;;;13.80;80.40;;;;;;6333941;22;20003;-87
2021/06/04 02:58:09;;;;;;;2.88;2.60;;;13.90;80.50;;;;;;6318214;22;19994;-88
2021/06/04 03:00:41;;;;;;;6.25;3.28;;;14.00;80.40;;;;;;6313694;22;20003;-88
2021/06/04 03:03:07;;;;;;;3.85;2.90;;;14.00;80.40;;;;;;6334815;22;20534;-88
2021/06/04 03:05:38;;;;;;;3.72;3.03;;;14.10;80.40;;;;;;6309766;22;19996;-87
2021/06/04 03:08:05;;;;;;;6.82;3.00;;;14.20;80.30;;;;;;6308590;22;20440;-88
2021/06/04 03:10:40;;;;;;;3.95;3.20;;;14.30;80.00;;;;;;6309614;22;19995;-88
2021/06/04 03:13:12;;;;;;;4.22;3.30;;;14.30;79.70;;;;;;6308123;22;20007;-88
2021/06/04 03:15:40;;;;;;;4.30;3.05;;;14.40;79.50;;;;;;6329737;22;20014;-89
2021/06/04 03:18:09;;;;;;;3.92;3.60;;;14.50;79.30;;;;;;6338817;22;19991;-89
2021/06/04 03:20:41;;;;;;;4.35;3.20;;;14.50;79.10;;;;;;6329905;22;20011;-89
2021/06/04 03:23:12;;;;;;;5.32;3.22;;;14.50;79.10;;;;;;6308497;22;20008;-88
2021/06/04 03:25:41;;;;;;;6.13;3.20;;;14.50;78.90;;;;;;6308324;22;19999;-88
2021/06/04 03:28:10;;;;;;;5.30;2.80;;;14.50;79.00;;;;;;6308283;22;20015;-88
2021/06/04 03:30:38;;;;;;;6.82;2.88;;;14.60;79.10;;;;;;6308545;22;20003;-88
2021/06/04 03:33:05;;;;;;;4.22;3.10;;;14.50;79.20;;;;;;6309260;22;20015;-89
2021/06/04 03:35:32;;;;;;;3.75;3.10;;;14.60;79.30;;;;;;6308461;22;20007;-89
2021/06/04 03:37:58;;;;;;;6.20;3.00;;;14.60;79.40;;;;;;6308431;22;20003;-88
2021/06/04 03:40:27;;;;;;;4.85;2.88;;;14.70;79.50;;;;;;6308299;22;20010;-88
2021/06/04 03:42:54;;;;;;;3.58;3.22;;;14.70;79.50;;;;;;6310101;22;20011;-88
2021/06/04 03:45:27;;;;;;;4.93;3.08;;;14.90;79.40;;;;;;6307928;22;20011;-88
2021/06/04 03:47:53;;;;;;;3.75;3.17;;;15.00;79.20;;;;;;6310938;22;20332;-88
2021/06/04 03:50:19;;;;;;;3.83;2.85;;;15.20;79.00;;;;;;6310651;22;20007;-88
2021/06/04 03:52:45;;;;;;;4.50;3.10;;;15.40;78.30;;;;;;6309744;22;20011;-88
2021/06/04 03:55:14;;;;;;;3.00;2.60;;;15.60;77.70;;;;;;6310698;22;20026;-88
2021/06/04 03:57:41;;;;;;;7.53;3.03;;;15.70;77.40;;;;;;6308582;22;20007;-88
2021/06/04 04:00:20;;;;;;;3.72;2.80;;;15.90;77.10;;;;;;6306238;22;20010;-88
2021/06/04 04:02:45;;;;;;;4.85;3.38;;;16.20;76.70;;;;;;6304597;22;20034;-88
2021/06/04 04:05:12;;;;;;;10.05;3.25;;;16.30;75.80;;;;;;6306160;22;20484;-88
2021/06/04 04:07:38;;;;;;;3.08;2.75;;;16.50;75.40;;;;;;6304688;22;20010;-88
2021/06/04 04:10:06;;;;;;;3.30;3.00;;;16.60;74.80;;;;;;6305765;22;20006;-88
2021/06/04 04:12:32;;;;;;;4.57;2.90;;;16.80;74.30;;;;;;6310368;22;20011;-87
2021/06/04 04:14:58;;;;;;;4.88;3.08;;;16.90;74.00;;;;;;6317609;22;20069;-88
2021/06/04 04:17:24;;;;;;;8.57;2.90;;;17.10;73.50;;;;;;6314869;22;20003;-88
2021/06/04 04:19:50;;;;;;;4.78;2.60;;;17.30;72.80;;;;;;6312698;22;20321;-87
2021/06/04 04:22:16;;;;;;;2.72;2.38;;;17.40;72.30;;;;;;6310808;22;20107;-87
2021/06/04 04:24:41;;;;;;;5.25;3.05;;;17.50;72.00;;;;;;6307825;22;19999;-87
2021/06/04 04:27:09;;;;;;;3.20;2.90;;;17.70;71.60;;;;;;6351348;22;20067;-88
2021/06/04 04:29:35;;;;;;;3.92;3.03;;;17.70;71.20;;;;;;6336696;22;20011;-88
2021/06/04 04:32:03;;;;;;;6.90;2.80;;;17.80;70.90;;;;;;6337812;22;19983;-89
2021/06/04 04:34:29;;;;;;;5.75;2.85;;;18.00;70.60;;;;;;6319541;22;20057;-89
2021/06/04 04:36:59;;;;;;;4.90;2.80;;;18.00;69.80;;;;;;6309151;22;20031;-88
2021/06/04 04:39:36;;;;;;;3.00;2.70;;;18.00;69.80;;;;;;6311966;22;20044;-89
2021/06/04 04:42:07;;;;;;;4.70;2.80;;;18.10;69.30;;;;;;6335597;22;20014;-88
2021/06/04 04:44:36;;;;;;;3.08;2.30;;;18.10;69.60;;;;;;6308161;22;20000;-89
2021/06/04 04:47:10;;;;;;;2.83;2.10;;;18.20;69.50;;;;;;6307779;22;20302;-88
2021/06/04 04:49:36;;;;;;;2.38;2.17;;;18.30;69.20;;;;;;6308451;22;20003;-88
2021/06/04 04:52:11;;;;;;;5.43;2.95;;;18.40;69.00;;;;;;6308486;22;20430;-88
2021/06/04 04:54:39;;;;;;;5.13;2.45;;;18.50;68.70;;;;;;6307954;22;20449;-88
2021/06/04 04:57:05;;;;;;;2.60;2.20;;;18.50;68.40;;;;;;6307016;22;20056;-88
2021/06/04 04:59:31;;;;;;;3.33;2.42;;;18.60;68.40;;;;;;6308141;22;20004;-89
2021/06/04 05:01:57;;;;;;;5.75;2.42;;;18.60;68.00;;;;;;6324864;22;19991;-89
2021/06/04 05:04:23;;;;;;;2.45;2.25;;;18.70;67.70;;;;;;6336211;22;19996;-88
2021/06/04 05:06:51;;;;;;;2.80;2.50;;;18.80;67.40;;;;;;6335542;22;20002;-88
2021/06/04 05:09:17;;;;;;;8.00;2.67;;;18.80;67.10;;;;;;6323418;22;20000;-89
2021/06/04 05:11:45;;;;;;;3.72;2.28;;;18.90;66.90;;;;;;6308913;22;20042;-87
2021/06/04 05:14:11;;;;;;;4.57;2.58;;;18.90;66.50;;;;;;6307532;22;20018;-88
2021/06/04 05:16:37;;;;;;;6.88;2.90;;;19.00;66.30;;;;;;6307465;22;20034;-88
2021/06/04 05:19:05;;;;;;;6.18;2.50;;;19.10;66.20;;;;;;6310850;22;20000;-88
2021/06/04 05:21:32;;;;;;;5.07;2.65;;;19.10;65.70;;;;;;6309670;22;20003;-89
2021/06/04 05:23:58;;;;;;;3.08;2.60;;;19.20;65.40;;;;;;6310263;22;20030;-89
2021/06/04 05:26:24;;;;;;;4.05;2.63;;;19.30;65.40;;;;;;6310233;22;20450;-88
2021/06/04 05:28:51;;;;;;;2.25;2.08;;;19.40;64.90;;;;;;6337292;22;20007;-89
2021/06/04 05:31:18;;;;;;;2.63;2.05;;;19.50;65.10;;;;;;6309827;22;20003;-90
2021/06/04 05:33:46;;;;;;;10.05;2.72;;;19.80;65.70;;;;;;6311344;22;20014;-88
2021/06/04 05:36:19;;;;;;;7.80;2.63;;;20.10;64.10;;;;;;6306899;22;19995;-88
2021/06/04 05:38:48;;;;;;;2.58;2.30;;;20.30;63.60;;;;;;6305172;22;20065;-88
2021/06/04 05:41:15;;;;;;;3.75;2.53;;;20.40;63.20;;;;;;6305601;22;19999;-88
2021/06/04 05:43:42;;;;;;;2.60;2.38;;;20.50;63.30;;;;;;6330742;22;20070;-88
2021/06/04 05:46:10;;;;;;;3.55;2.33;;;20.70;62.60;;;;;;6309869;22;20090;-88
2021/06/04 05:48:37;;;;;;;3.75;2.30;;;20.80;62.30;;;;;;6306991;22;20436;-89
2021/06/04 05:51:08;;;;;;;3.05;2.40;;;21.00;61.80;;;;;;6306329;22;20013;-89
2021/06/04 05:53:36;;;;;;;3.20;2.30;;;21.20;61.70;;;;;;6308099;22;20015;-89
2021/06/04 05:56:04;;;;;;;2.38;2.15;;;21.50;61.40;;;;;;6307463;22;20082;-89
2021/06/04 05:58:30;;;;;;;4.57;2.10;;;21.70;60.60;;;;;;6307244;22;20008;-89
2021/06/04 06:01:00;;;;;;;3.80;2.67;;;21.90;60.40;;;;;;6308068;22;20034;-88
2021/06/04 06:03:31;;;;;;;3.72;2.30;;;22.10;59.50;;;;;;6331858;22;19990;-88
2021/06/04 06:05:57;;;;;;;6.78;2.50;;;22.20;59.10;;;;;;6334613;22;20010;-88
2021/06/04 06:08:26;;;;;;;3.33;2.40;;;22.40;59.30;;;;;;6330118;22;20031;-88
2021/06/04 06:10:52;;;;;;;5.50;2.15;;;22.60;58.90;;;;;;6309181;22;20357;-87
2021/06/04 06:13:19;;;;;;;2.40;2.20;;;22.80;58.40;;;;;;6332858;22;20102;-89
2021/06/04 06:15:45;;;;;;;3.03;2.08;;;23.10;58.60;;;;;;6301988;22;20008;-88
2021/06/04 06:18:12;;;;;;;2.63;2.17;;;23.70;57.80;;;;;;6330781;22;20011;-89
2021/06/04 06:20:40;;;;;;;3.55;2.30;;;24.30;57.40;;;;;;6304758;22;20456;-89
2021/06/04 06:23:08;;;;;;;5.18;2.40;;;24.90;56.40;;;;;;6306693;22;20337;-89
2021/06/04 06:25:38;;;;;;;4.38;2.40;;;25.30;55.20;;;;;;6304295;22;20013;-89
2021/06/04 06:28:07;;;;;;;2.33;2.03;;;25.90;54.80;;;;;;6303860;22;20477;-88
2021/06/04 06:30:34;;;;;;;3.08;2.30;;;26.40;53.80;;;;;;6307697;22;19995;-89
2021/06/04 06:33:01;;;;;;;2.50;2.10;;;26.90;52.90;;;;;;6308962;22;20325;-89
2021/06/04 06:35:34;;;;;;;3.60;2.40;;;27.40;52.60;;;;;;6308182;22;20504;-89
2021/06/04 06:38:00;;;;;;;3.23;2.10;;;27.60;51.60;;;;;;6308319;22;20008;-89
2021/06/04 06:40:26;;;;;;;2.67;2.03;;;28.20;51.20;;;;;;6306956;22;20003;-89
2021/06/04 06:42:53;;;;;;;8.20;2.30;;;28.60;50.20;;;;;;6309878;22;20015;-89
2021/06/04 06:45:19;;;;;;;9.55;1.90;;;28.70;49.50;;;;;;6309435;22;20049;-89
2021/06/04 06:47:45;;;;;;;2.67;1.90;;;28.90;49.40;;;;;;6310380;22;20027;-88
2021/06/04 06:50:12;;;;;;;10.80;1.80;;;29.10;48.80;;;;;;6307130;22;20003;-89
2021/06/04 06:52:38;;;;;;;3.92;1.88;;;29.00;47.80;;;;;;6308094;22;20344;-89
2021/06/04 06:55:06;;;;;;;5.78;1.90;;;28.60;47.30;;;;;;6307868;22;20467;-89
2021/06/04 06:57:32;;;;;;;4.38;1.70;;;28.50;47.30;;;;;;6306704;22;20003;-89
2021/06/04 06:59:58;;;;;;;3.17;2.00;;;28.40;47.70;;;;;;6307410;22;20007;-89
2021/06/04 07:02:24;;;;;;;2.22;1.95;;;28.60;47.80;;;;;;6315284;22;19987;-88
2021/06/04 07:04:50;;;;;;;6.72;2.35;;;29.00;47.20;;;;;;6334271;22;20030;-88
2021/06/04 07:07:20;;;;;;;5.95;2.10;;;29.40;46.80;;;;;;6359699;22;19995;-89
2021/06/04 07:09:47;;;;;;;4.78;1.92;;;29.90;46.20;;;;;;6334346;22;20029;-86
2021/06/04 07:12:13;;;;;;;5.95;1.70;;;30.20;45.50;;;;;;6316578;22;20077;-87
2021/06/04 07:14:39;;;;;;;4.57;1.60;;;30.40;45.40;;;;;;6307344;22;20023;-87
2021/06/04 07:17:06;;;;;;;3.00;1.75;;;30.80;45.20;;;;;;6307482;22;20441;-87
2021/06/04 07:19:34;;;;;;;2.28;1.92;;;31.10;44.70;;;;;;6307253;22;20301;-89
2021/06/04 07:22:01;;;;;;;4.63;1.92;;;31.00;43.70;;;;;;6308934;22;20023;-87
2021/06/04 07:24:28;;;;;;;3.22;1.95;;;30.80;43.60;;;;;;6308794;22;20084;-88
2021/06/04 07:26:58;;;;;;;5.88;1.58;;;30.70;43.70;;;;;;6306450;22;20057;-87
2021/06/04 07:29:27;;;;;;;3.03;1.55;;;31.00;43.70;;;;;;6304532;22;20004;-87
2021/06/04 07:31:55;;;;;;;3.95;1.35;;;31.40;43.60;;;;;;6303709;22;20003;-89
2021/06/04 07:34:23;;;;;;;5.22;1.63;;;31.80;43.40;;;;;;6304298;22;20019;-88
2021/06/04 07:36:51;;;;;;;4.50;1.90;;;31.90;42.60;;;;;;6320713;22;20085;-87
2021/06/04 07:39:22;;;;;;;1.88;1.58;;;32.00;42.20;;;;;;6318655;22;20003;-88
2021/06/04 07:41:49;;;;;;;1.98;1.45;;;32.20;42.30;;;;;;6304322;22;20056;-88
2021/06/04 07:44:16;;;;;;;2.58;1.60;;;32.50;42.00;;;;;;6305344;22;20010;-87
2021/06/04 07:46:43;;;;;;;5.18;1.50;;;32.50;41.40;;;;;;6305635;22;20011;-89
2021/06/04 07:49:09;;;;;;;3.45;1.70;;;32.50;41.10;;;;;;6306208;22;20011;-88
2021/06/04 07:51:39;;;;;;;5.32;1.45;;;32.70;40.70;;;;;;6306873;22;20003;-89
2021/06/04 07:54:07;;;;;;;3.10;1.45;;;32.90;40.90;;;;;;6306277;22;20033;-91
2021/06/04 07:56:33;;;;;;;1.80;1.40;;;33.10;40.10;;;;;;6305803;22;20003;-90
2021/06/04 07:59:00;;;;;;;3.15;1.52;;;33.50;40.20;;;;;;6307309;22;20061;-91
2021/06/04 08:01:28;;;;;;;6.05;1.70;;;33.90;39.90;;;;;;6306824;22;20082;-89
2021/06/04 08:03:55;;;;;;;3.40;1.77;;;34.20;39.20;;;;;;6307585;22;20019;-87
2021/06/04 08:06:21;;;;;;;9.82;1.85;;;34.30;39.00;;;;;;6307542;22;20003;-89
2021/06/04 08:08:49;;;;;;;3.30;1.70;;;34.50;38.10;;;;;;6307781;22;20064;-89
2021/06/04 08:11:23;;;;;;;2.67;1.58;;;34.70;38.20;;;;;;6309281;22;20004;-89
2021/06/04 08:13:49;;;;;;;5.68;1.42;;;35.00;37.00;;;;;;6308496;22;20015;-89
2021/06/04 08:16:15;;;;;;;2.58;1.50;;;35.20;37.20;;;;;;6317257;22;19998;-88
2021/06/04 08:18:42;;;;;;;3.17;1.70;;;35.30;36.50;;;;;;6336896;22;20017;-88
2021/06/04 08:21:30;;;;;;;3.00;1.40;;;35.40;36.60;;;;;;6337284;22;20018;-88
2021/06/04 08:23:56;;;;;;;4.40;1.70;;;35.80;36.90;;;;;;6325261;22;20015;-89
2021/06/04 08:26:26;;;;;;;3.20;1.52;;;36.10;35.60;;;;;;6308854;22;19998;-89
2021/06/04 08:28:52;;;;;;;3.53;1.13;;;36.30;35.40;;;;;;6308087;22;20007;-91
2021/06/04 08:31:21;;;;;;;3.53;1.20;;;36.30;35.30;;;;;;6307497;22;20013;-87
2021/06/04 08:33:47;;;;;;;2.67;1.40;;;36.40;34.80;;;;;;6308918;22;20506;-88
2021/06/04 08:36:17;;;;;;;6.10;1.30;;;35.80;34.40;;;;;;6306698;22;19999;-88
2021/06/04 08:38:43;;;;;;;4.40;1.55;;;34.80;33.30;;;;;;6307359;22;20425;-87
2021/06/04 08:42:03;;;;;;;5.20;1.20;;;34.10;34.20;;;;;;6306166;22;20033;-90
2021/06/04 08:45:10;;;;;;;2.33;1.20;;;34.10;34.00;;;;;;6212823;23;20020;-89
2021/06/04 08:47:40;;;;;;;4.45;1.08;;;34.60;34.30;;;;;;6186351;23;20019;-88
2021/06/04 08:50:11;;;;;;;4.35;1.30;;;34.90;33.80;;;;;;6216645;23;20012;-89
2021/06/04 08:52:48;;;;;;;2.50;1.10;;;35.00;33.30;;;;;;6292017;22;20022;-89
2021/06/04 08:55:32;;;;;;;5.32;1.10;;;35.10;32.30;;;;;;6334929;22;20002;-89
2021/06/04 08:58:10;;;;;;;1.50;1.20;;;35.70;33.50;;;;;;6319781;22;20329;-88
2021/06/04 09:00:39;;;;;;;7.20;1.55;;;36.40;33.30;;;;;;6306646;22;20003;-90
2021/06/04 09:03:19;;;;;;;4.22;1.30;;;36.70;32.20;;;;;;6305855;22;20388;-89
2021/06/04 09:05:49;;;;;;;3.83;1.35;;;36.70;32.40;;;;;;6332675;22;20113;-92
2021/06/04 09:08:18;;;;;;;2.95;1.00;;;36.70;31.80;;;;;;6306862;22;20448;-90
2021/06/04 09:10:49;;;;;;;2.05;1.27;;;36.90;31.70;;;;;;6332952;22;20003;-91
2021/06/04 09:13:25;;;;;;;3.53;1.20;;;37.20;31.60;;;;;;6306967;22;20403;-91
2021/06/04 09:15:58;;;;;;;3.15;1.38;;;37.40;30.90;;;;;;6308338;22;20000;-89
2021/06/04 09:18:38;;;;;;;3.80;1.17;;;37.20;30.80;;;;;;6306143;22;20017;-89
2021/06/04 09:21:08;;;;;;;2.15;1.20;;;36.70;30.70;;;;;;6306369;22;20004;-90
2021/06/04 09:23:40;;;;;;;1.70;1.35;;;36.90;31.40;;;;;;6307566;22;20039;-90
2021/06/04 09:26:08;;;;;;;3.08;1.60;;;37.30;31.20;;;;;;6316752;22;20070;-91
2021/06/04 09:28:37;;;;;;;1.65;1.10;;;37.50;31.20;;;;;;6309487;22;20325;-88
2021/06/04 09:31:34;;;;;;;1.88;1.30;;;37.60;31.20;;;;;;6307739;22;20025;-89
2021/06/04 09:34:12;;;;;;;1.33;1.15;;;37.80;30.90;;;;;;6296813;22;20090;-90
2021/06/04 09:36:52;;;;;;;5.68;1.20;;;38.30;31.40;;;;;;6306597;22;19995;-89
2021/06/04 09:39:26;;;;;;;2.67;1.10;;;38.40;30.70;;;;;;6305851;22;20007;-89
2021/06/04 09:41:53;;;;;;;1.40;1.05;;;38.00;30.50;;;;;;6307327;22;20003;-89
2021/06/04 09:44:21;;;;;;;4.63;1.40;;;37.50;30.50;;;;;;6306869;22;20122;-89
2021/06/04 09:47:01;;;;;;;2.58;1.00;;;37.40;30.90;;;;;;6308879;22;20421;-90
2021/06/04 09:49:28;;;;;;;2.15;1.30;;;37.90;30.00;;;;;;6326642;22;19999;-89
2021/06/04 09:52:00;;;;;;;1.42;1.10;;;38.40;30.80;;;;;;6315066;22;20337;-90
2021/06/04 09:54:30;;;;;;;3.78;1.13;;;38.90;30.50;;;;;;6309077;22;20294;-90
2021/06/04 09:57:09;;;;;;;1.63;1.10;;;39.40;30.20;;;;;;6305949;22;20306;-90
2021/06/04 09:59:36;;;;;;;4.35;1.23;;;39.40;29.40;;;;;;6305799;22;20092;-89
2021/06/04 10:02:20;;;;;;;2.90;1.15;;;39.10;29.20;;;;;;6306171;22;20007;-89
2021/06/04 10:04:46;;;;;;;1.48;0.95;;;38.70;29.50;;;;;;6305779;22;20015;-89
2021/06/04 10:07:23;;;;;;;2.58;1.27;;;38.40;29.50;;;;;;6304780;22;20061;-89
2021/06/04 10:09:50;;;;;;;1.35;0.98;;;38.00;29.20;;;;;;6306630;22;20045;-89
2021/06/04 10:12:33;;;;;;;1.98;0.88;;;37.50;29.60;;;;;;6307265;22;20448;-89
2021/06/04 10:15:20;;;;;;;2.72;1.10;;;37.60;29.50;;;;;;6307024;22;20416;-90
2021/06/04 10:20:24;;;;;;;3.17;0.95;;;38.30;30.00;;;;;;6307300;22;20148;-89
2021/06/04 10:23:02;;;;;;;4.18;1.30;;;38.70;29.50;;;;;;6305980;22;20053;-90
2021/06/04 10:25:39;;;;;;;3.40;1.20;;;39.20;29.80;;;;;;6314134;22;20011;-91
2021/06/04 10:28:05;;;;;;;3.95;1.00;;;39.70;29.50;;;;;;6286366;22;20064;-89
2021/06/04 10:30:34;;;;;;;4.63;1.00;;;40.40;29.50;;;;;;6283321;22;20015;-89
2021/06/04 10:33:07;;;;;;;2.70;0.98;;;40.70;28.90;;;;;;6332419;22;20007;-90
2021/06/04 10:35:38;;;;;;;;;;;40.90;29.10;;;;;;6333162;22;20037;-89
2021/06/04 10:38:13;;;;;;;4.00;1.10;;;40.90;28.80;;;;;;6327573;22;19926;-89
2021/06/04 10:40:54;;;;;;;3.45;1.13;;;41.00;28.10;;;;;;6306303;22;20018;-89
2021/06/04 10:43:24;;;;;;;1.67;0.93;;;40.70;28.30;;;;;;6306750;22;20003;-91
2021/06/04 10:46:07;;;;;;;4.40;1.23;;;39.50;28.00;;;;;;6306919;22;20011;-89
2021/06/04 10:48:48;;;;;;;3.35;1.40;;;38.20;28.00;;;;;;6306067;22;20003;-89
2021/06/04 10:51:21;;;;;;;3.90;0.95;;;37.10;28.50;;;;;;6306620;22;20333;-88
2021/06/04 10:54:19;;;;;;;5.80;1.38;;;36.10;28.80;;;;;;6306951;22;20018;-88
2021/06/04 10:57:17;;;;;;;2.58;1.10;;;35.60;29.40;;;;;;6304975;22;20344;-89
2021/06/04 10:59:54;;;;;;;2.10;1.13;;;35.80;29.20;;;;;;6305380;22;20341;-89
2021/06/04 11:02:36;;;;;;;2.28;1.00;;;35.80;29.30;;;;;;6304370;22;20094;-88
2021/06/04 11:05:38;;;;;;;2.65;1.10;;;35.70;29.40;;;;;;6303733;22;20048;-90
2021/06/04 11:08:23;;;;;;;4.50;1.20;;;35.40;29.10;;;;;;6332150;22;20067;-89
2021/06/04 11:11:20;;;;;;;5.55;1.27;;;34.60;29.10;;;;;;6332595;22;20007;-88
2021/06/04 11:14:18;;;;;;;1.63;1.02;;;34.60;29.70;;;;;;6322127;22;20029;-88
2021/06/04 11:16:50;;;;;;;8.82;1.60;;;35.20;29.60;;;;;;6305280;22;20015;-89
2021/06/04 11:19:31;;;;;;;2.42;1.10;;;35.20;29.60;;;;;;6307209;22;20027;-89
2021/06/04 11:22:03;;;;;;;4.32;1.20;;;35.50;29.90;;;;;;6306938;22;20068;-89
2021/06/04 11:24:54;;;;;;;1.00;0.90;;;36.40;30.00;;;;;;6308819;22;20048;-89
2021/06/04 11:27:28;;;;;;;3.45;1.13;;;37.70;29.30;;;;;;6306995;22;20025;-90
2021/06/04 11:29:55;;;;;;;1.25;0.95;;;38.10;28.90;;;;;;6306563;22;20015;-89
2021/06/04 11:32:28;;;;;;;3.47;1.15;;;37.90;28.60;;;;;;6331839;22;20346;-89
2021/06/04 11:35:20;;;;;;;3.95;1.10;;;37.10;28.40;;;;;;6306906;22;20031;-90
2021/06/04 11:37:48;;;;;;;2.85;1.17;;;35.90;28.50;;;;;;6309204;22;20007;-90
2021/06/04 11:40:29;;;;;;;1.40;0.93;;;34.80;28.70;;;;;;6310968;22;20014;-90
2021/06/04 11:43:19;;;;;;;2.22;1.10;;;33.60;29.10;;;;;;6310725;22;20012;-89
2021/06/04 11:45:47;;;;;;;4.68;1.00;;;32.60;29.90;;;;;;6312724;22;20037;-88
2021/06/04 11:48:28;;;;;;;5.22;1.15;;;32.20;30.10;;;;;;6310105;22;20086;-88
2021/06/04 11:51:19;;;;;;;3.33;1.17;;;32.20;30.70;;;;;;6305607;22;20065;-88
2021/06/04 11:54:30;;;;;;;3.15;0.98;;;32.40;30.40;;;;;;6304781;22;20038;-88
2021/06/04 11:57:10;;;;;;;1.92;1.08;;;32.10;30.10;;;;;;6255963;22;20459;-89
2021/06/04 11:59:49;;;;;;;2.70;1.23;;;31.60;30.40;;;;;;6305377;22;20045;-88
2021/06/04 12:02:34;;;;;;;3.10;1.20;;;31.20;30.60;;;;;;6306485;22;20082;-88
2021/06/04 12:05:04;;;;;;;3.40;1.30;;;30.60;31.30;;;;;;6303417;22;20007;-90
2021/06/04 12:07:40;;;;;;;2.55;1.10;;;30.20;31.40;;;;;;6317205;22;19991;-89
2021/06/04 12:10:08;;;;;;;2.38;1.25;;;29.90;32.10;;;;;;6363184;22;20007;-89
2021/06/04 12:12:59;;;;;;;3.47;1.48;;;29.70;32.10;;;;;;6337044;22;20034;-89
2021/06/04 12:15:34;;;;;;;4.18;0.90;;;29.60;32.50;;;;;;6322269;22;20029;-89
2021/06/04 12:18:47;;;;;;;4.90;1.35;;;29.40;32.70;;;;;;6311663;22;20071;-89
2021/06/04 12:21:38;;;;;;;2.40;1.13;;;29.50;32.70;;;;;;6308451;22;20022;-89
2021/06/04 12:24:10;;;;;;;3.03;1.10;;;29.60;32.50;;;;;;6307966;22;20107;-88
2021/06/04 12:26:42;;;;;;;1.55;1.17;;;29.80;32.50;;;;;;6307784;22;20429;-89
2021/06/04 12:29:31;;;;;;;2.55;0.95;;;30.60;32.90;;;;;;6307836;22;20585;-89
2021/06/04 12:32:05;;;;;;;2.17;0.90;;;32.00;32.20;;;;;;6293387;22;20027;-89
2021/06/04 12:34:40;;;;;;;3.10;1.30;;;32.80;31.90;;;;;;6308192;22;20065;-89
2021/06/04 12:37:17;;;;;;;1.33;0.95;;;33.00;31.50;;;;;;6308575;22;20003;-88
2021/06/04 12:40:19;;;;;;;2.00;1.40;;;33.20;31.40;;;;;;6308154;22;20007;-88
2021/06/04 12:43:16;;;;;;;3.35;1.15;;;34.00;31.00;;;;;;6309820;22;20011;-88
2021/06/04 12:45:54;;;;;;;5.05;1.30;;;34.60;30.00;;;;;;6324356;22;19995;-89
2021/06/04 12:48:36;;;;;;;9.23;1.38;;;34.30;30.20;;;;;;6335892;22;19994;-89
2021/06/04 12:51:07;;;;;;;4.18;1.10;;;33.80;30.00;;;;;;6335158;22;20018;-89
2021/06/04 12:54:00;;;;;;;1.55;1.30;;;33.20;30.10;;;;;;6324869;22;20022;-89
2021/06/04 12:56:28;;;;;;;2.00;0.90;;;33.00;30.60;;;;;;6299135;22;20094;-90
2021/06/04 12:59:16;;;;;;;3.13;0.98;;;33.00;30.70;;;;;;6283935;22;20008;-90
2021/06/04 13:02:10;;;;;;;3.35;1.00;;;33.70;31.30;;;;;;6307820;22;20003;-88
2021/06/04 13:04:42;;;;;;;6.07;1.30;;;35.00;30.80;;;;;;6328726;22;20018;-88
2021/06/04 13:07:31;;;;;;;2.42;1.25;;;35.60;30.00;;;;;;6317089;22;20035;-89
2021/06/04 13:10:21;;;;;;;4.18;1.27;;;35.50;29.70;;;;;;6309748;22;19999;-89
2021/06/04 13:12:50;;;;;;;3.05;1.05;;;35.10;29.50;;;;;;6308101;22;20049;-89
2021/06/04 13:15:20;;;;;;;2.40;0.90;;;34.20;29.40;;;;;;6308027;22;20004;-90
2021/06/04 13:18:01;;;;;;;3.42;1.20;;;33.60;29.70;;;;;;6308273;22;20011;-90
2021/06/04 13:20:30;;;;;;;1.08;0.90;;;32.70;30.00;;;;;;6307806;22;20086;-89